sensor_id;sensor_type;location;lat;lon;timestamp;temperature;humidity
20208;DHT22;10263;48.716;8.760;2024-01-16T00:01:18;-1.70;99.90
20208;DHT22;10263;48.716;8.760;2024-01-16T00:03:45;-1.60;99.90
20208;DHT22;10263;48.716;8.760;2024-01-16T00:11:06;-1.60;99.90
20208;DHT22;10263;48.716;8.760;2024-01-16T00:13:33;-1.70;99.90
20208;DHT22;10263;48.716;8.760;2024-01-16T00:16:01;-1.70;99.90
20208;DHT22;10263;48.716;8.760;2024-01-16T00:18:30;-1.60;99.90
20208;DHT22;10263;48.716;8.760;2024-01-16T00:25:51;-1.70;99.90
20208;DHT22;10263;48.716;8.760;2024-01-16T00:28:18;-1.00;99.90
20208;DHT22;10263;48.716;8.760;2024-01-16T00:33:12;-1.40;99.90
20208;DHT22;10263;48.716;8.760;2024-01-16T00:35:41;-1.70;99.90
20208;DHT22;10263;48.716;8.760;2024-01-16T00:38:08;-1.70;99.90
20208;DHT22;10263;48.716;8.760;2024-01-16T00:43:03;-1.40;99.90
20208;DHT22;10263;48.716;8.760;2024-01-16T00:50:24;-1.50;99.90
20208;DHT22;10263;48.716;8.760;2024-01-16T00:52:53;-1.50;99.90
20208;DHT22;10263;48.716;8.760;2024-01-16T01:00:15;-1.60;99.90
20208;DHT22;10263;48.716;8.760;2024-01-16T01:02:41;-1.80;99.90
20208;DHT22;10263;48.716;8.760;2024-01-16T01:05:09;-1.70;99.90
20208;DHT22;10263;48.716;8.760;2024-01-16T01:10:05;-1.70;99.90
20208;DHT22;10263;48.716;8.760;2024-01-16T01:12:32;-1.60;99.90
20208;DHT22;10263;48.716;8.760;2024-01-16T01:14:59;-1.70;99.90
20208;DHT22;10263;48.716;8.760;2024-01-16T01:19:53;-1.60;99.90
20208;DHT22;10263;48.716;8.760;2024-01-16T01:27:16;-1.50;99.90
20208;DHT22;10263;48.716;8.760;2024-01-16T01:29:43;-1.80;99.90
20208;DHT22;10263;48.716;8.760;2024-01-16T01:32:09;-1.70;99.90
20208;DHT22;10263;48.716;8.760;2024-01-16T01:37:04;-1.70;99.90
20208;DHT22;10263;48.716;8.760;2024-01-16T01:39:30;-1.80;99.90
20208;DHT22;10263;48.716;8.760;2024-01-16T01:44:26;-1.50;99.90
20208;DHT22;10263;48.716;8.760;2024-01-16T01:46:54;-1.80;99.90
20208;DHT22;10263;48.716;8.760;2024-01-16T01:49:22;-2.00;99.90
20208;DHT22;10263;48.716;8.760;2024-01-16T01:51:49;-1.90;99.90
20208;DHT22;10263;48.716;8.760;2024-01-16T01:54:17;-1.80;99.90
20208;DHT22;10263;48.716;8.760;2024-01-16T01:56:47;-1.60;99.90
20208;DHT22;10263;48.716;8.760;2024-01-16T01:59:14;-1.80;99.90
20208;DHT22;10263;48.716;8.760;2024-01-16T02:04:14;-2.00;99.90
20208;DHT22;10263;48.716;8.760;2024-01-16T02:11:38;-2.30;99.90
20208;DHT22;10263;48.716;8.760;2024-01-16T02:16:38;-2.30;99.90
20208;DHT22;10263;48.716;8.760;2024-01-16T02:19:07;-2.30;99.90
20208;DHT22;10263;48.716;8.760;2024-01-16T02:21:38;-2.30;99.90
20208;DHT22;10263;48.716;8.760;2024-01-16T02:24:08;-2.30;99.90
20208;DHT22;10263;48.716;8.760;2024-01-16T02:29:03;-2.60;99.90
20208;DHT22;10263;48.716;8.760;2024-01-16T02:33:57;-2.70;99.90
20208;DHT22;10263;48.716;8.760;2024-01-16T02:36:24;-2.70;99.90
20208;DHT22;10263;48.716;8.760;2024-01-16T02:38:51;-2.80;99.90
20208;DHT22;10263;48.716;8.760;2024-01-16T02:41:20;-2.60;99.90
20208;DHT22;10263;48.716;8.760;2024-01-16T02:46:15;-3.00;99.90
20208;DHT22;10263;48.716;8.760;2024-01-16T02:48:41;-3.00;99.90
20208;DHT22;10263;48.716;8.760;2024-01-16T02:51:09;-3.00;99.90
20208;DHT22;10263;48.716;8.760;2024-01-16T02:53:36;-3.20;99.90
20208;DHT22;10263;48.716;8.760;2024-01-16T02:56:03;-3.10;99.90
20208;DHT22;10263;48.716;8.760;2024-01-16T02:58:31;-3.20;99.90
20208;DHT22;10263;48.716;8.760;2024-01-16T03:00:58;-3.50;99.90
20208;DHT22;10263;48.716;8.760;2024-01-16T03:03:26;-3.40;99.90
20208;DHT22;10263;48.716;8.760;2024-01-16T03:08:21;-3.50;99.90
20208;DHT22;10263;48.716;8.760;2024-01-16T03:10:48;-3.60;99.90
20208;DHT22;10263;48.716;8.760;2024-01-16T03:13:15;-3.80;99.90
20208;DHT22;10263;48.716;8.760;2024-01-16T03:15:43;-3.80;99.90
20208;DHT22;10263;48.716;8.760;2024-01-16T03:18:10;-3.90;99.90
20208;DHT22;10263;48.716;8.760;2024-01-16T03:23:04;-4.00;99.90
20208;DHT22;10263;48.716;8.760;2024-01-16T03:25:31;-3.70;99.90
20208;DHT22;10263;48.716;8.760;2024-01-16T03:28:03;-4.00;99.90
20208;DHT22;10263;48.716;8.760;2024-01-16T03:30:29;-4.20;99.90
20208;DHT22;10263;48.716;8.760;2024-01-16T03:32:58;-4.20;99.90
20208;DHT22;10263;48.716;8.760;2024-01-16T03:35:24;-4.20;99.90
20208;DHT22;10263;48.716;8.760;2024-01-16T03:37:51;-4.00;99.90
20208;DHT22;10263;48.716;8.760;2024-01-16T03:40:18;-4.10;99.90
20208;DHT22;10263;48.716;8.760;2024-01-16T03:42:45;-4.20;99.90
20208;DHT22;10263;48.716;8.760;2024-01-16T03:47:39;-4.40;99.90
20208;DHT22;10263;48.716;8.760;2024-01-16T03:50:09;-4.40;99.90
20208;DHT22;10263;48.716;8.760;2024-01-16T03:52:35;-4.30;99.90
20208;DHT22;10263;48.716;8.760;2024-01-16T03:55:02;-4.40;99.90
20208;DHT22;10263;48.716;8.760;2024-01-16T03:57:29;-3.60;99.90
20208;DHT22;10263;48.716;8.760;2024-01-16T03:59:57;-4.40;99.90
20208;DHT22;10263;48.716;8.760;2024-01-16T04:02:24;-4.60;99.90
20208;DHT22;10263;48.716;8.760;2024-01-16T04:04:51;-4.40;99.90
20208;DHT22;10263;48.716;8.760;2024-01-16T04:07:19;-1.50;99.90
20208;DHT22;10263;48.716;8.760;2024-01-16T04:09:46;-4.70;99.90
20208;DHT22;10263;48.716;8.760;2024-01-16T04:19:34;-4.60;99.90
20208;DHT22;10263;48.716;8.760;2024-01-16T04:22:01;-5.90;99.90
20208;DHT22;10263;48.716;8.760;2024-01-16T04:24:31;-4.70;99.90
20208;DHT22;10263;48.716;8.760;2024-01-16T04:26:58;-4.80;99.90
20208;DHT22;10263;48.716;8.760;2024-01-16T04:29:25;-4.60;99.90
20208;DHT22;10263;48.716;8.760;2024-01-16T04:31:51;-4.90;99.90
20208;DHT22;10263;48.716;8.760;2024-01-16T04:36:45;-4.80;99.90
20208;DHT22;10263;48.716;8.760;2024-01-16T04:41:42;-5.00;99.90
20208;DHT22;10263;48.716;8.760;2024-01-16T04:46:36;-5.00;99.90
20208;DHT22;10263;48.716;8.760;2024-01-16T04:58:52;-5.00;99.90
20208;DHT22;10263;48.716;8.760;2024-01-16T05:01:19;-5.00;99.90
20208;DHT22;10263;48.716;8.760;2024-01-16T05:11:08;-5.10;99.90
20208;DHT22;10263;48.716;8.760;2024-01-16T05:13:35;-4.70;99.90
20208;DHT22;10263;48.716;8.760;2024-01-16T05:16:04;-5.40;99.90
20208;DHT22;10263;48.716;8.760;2024-01-16T05:18:31;-5.30;99.90
20208;DHT22;10263;48.716;8.760;2024-01-16T05:20:59;-5.40;99.90
20208;DHT22;10263;48.716;8.760;2024-01-16T05:25:53;-5.20;99.90
20208;DHT22;10263;48.716;8.760;2024-01-16T05:28:19;-5.30;99.90
20208;DHT22;10263;48.716;8.760;2024-01-16T05:33:14;-5.30;99.90
20208;DHT22;10263;48.716;8.760;2024-01-16T05:38:08;-5.70;99.90
20208;DHT22;10263;48.716;8.760;2024-01-16T05:40:38;-5.50;99.90
20208;DHT22;10263;48.716;8.760;2024-01-16T05:43:04;-5.50;99.90
20208;DHT22;10263;48.716;8.760;2024-01-16T05:45:31;-5.50;99.90
20208;DHT22;10263;48.716;8.760;2024-01-16T05:47:58;-5.50;99.90
20208;DHT22;10263;48.716;8.760;2024-01-16T05:50:26;-5.70;99.90
20208;DHT22;10263;48.716;8.760;2024-01-16T05:57:47;-5.60;99.90
20208;DHT22;10263;48.716;8.760;2024-01-16T06:00:15;-5.60;99.90
20208;DHT22;10263;48.716;8.760;2024-01-16T06:07:39;-5.70;99.90
20208;DHT22;10263;48.716;8.760;2024-01-16T06:10:07;-5.70;99.90
20208;DHT22;10263;48.716;8.760;2024-01-16T06:12:35;-5.60;99.90
20208;DHT22;10263;48.716;8.760;2024-01-16T06:24:52;-5.70;99.90
20208;DHT22;10263;48.716;8.760;2024-01-16T06:27:18;-5.40;99.90
20208;DHT22;10263;48.716;8.760;2024-01-16T06:42:05;-5.60;99.90
20208;DHT22;10263;48.716;8.760;2024-01-16T06:44:32;-5.60;99.90
20208;DHT22;10263;48.716;8.760;2024-01-16T06:49:26;-5.50;99.90
20208;DHT22;10263;48.716;8.760;2024-01-16T06:56:49;-5.40;99.90
20208;DHT22;10263;48.716;8.760;2024-01-16T06:59:17;-5.50;99.90
20208;DHT22;10263;48.716;8.760;2024-01-16T07:01:47;-5.40;99.90
20208;DHT22;10263;48.716;8.760;2024-01-16T07:04:14;-5.50;99.90
20208;DHT22;10263;48.716;8.760;2024-01-16T07:09:09;-5.80;99.90
20208;DHT22;10263;48.716;8.760;2024-01-16T07:11:37;-5.60;99.90
20208;DHT22;10263;48.716;8.760;2024-01-16T07:16:35;-5.70;99.90
20208;DHT22;10263;48.716;8.760;2024-01-16T07:19:02;-5.80;99.90
20208;DHT22;10263;48.716;8.760;2024-01-16T07:21:29;-5.60;99.90
20208;DHT22;10263;48.716;8.760;2024-01-16T07:23:56;-5.80;99.90
20208;DHT22;10263;48.716;8.760;2024-01-16T07:26:23;-5.70;99.90
20208;DHT22;10263;48.716;8.760;2024-01-16T07:33:46;-5.60;99.90
20208;DHT22;10263;48.716;8.760;2024-01-16T07:36:14;-5.50;99.90
20208;DHT22;10263;48.716;8.760;2024-01-16T07:38:41;-5.40;99.90
20208;DHT22;10263;48.716;8.760;2024-01-16T07:46:02;-5.70;99.90
20208;DHT22;10263;48.716;8.760;2024-01-16T07:48:29;-5.40;99.90
20208;DHT22;10263;48.716;8.760;2024-01-16T07:50:57;-5.30;99.90
20208;DHT22;10263;48.716;8.760;2024-01-16T07:55:53;-5.20;99.90
20208;DHT22;10263;48.716;8.760;2024-01-16T07:58:21;-5.30;99.90
20208;DHT22;10263;48.716;8.760;2024-01-16T08:00:47;-4.40;99.90
20208;DHT22;10263;48.716;8.760;2024-01-16T08:05:41;-5.20;99.90
20208;DHT22;10263;48.716;8.760;2024-01-16T08:08:10;-4.90;99.90
20208;DHT22;10263;48.716;8.760;2024-01-16T08:13:04;-4.90;99.90
20208;DHT22;10263;48.716;8.760;2024-01-16T08:15:31;-4.80;99.90
20208;DHT22;10263;48.716;8.760;2024-01-16T08:22:54;-4.80;99.90
20208;DHT22;10263;48.716;8.760;2024-01-16T08:25:36;-4.80;99.90
20208;DHT22;10263;48.716;8.760;2024-01-16T08:30:31;-4.30;99.90
20208;DHT22;10263;48.716;8.760;2024-01-16T08:32:58;-4.40;99.90
20208;DHT22;10263;48.716;8.760;2024-01-16T08:37:52;-4.00;99.90
20208;DHT22;10263;48.716;8.760;2024-01-16T08:40:18;-4.10;99.90
20208;DHT22;10263;48.716;8.760;2024-01-16T08:42:46;-4.00;99.90
20208;DHT22;10263;48.716;8.760;2024-01-16T08:45:17;-4.00;99.90
20208;DHT22;10263;48.716;8.760;2024-01-16T08:55:05;-4.50;99.90
20208;DHT22;10263;48.716;8.760;2024-01-16T08:57:32;-3.30;99.90
20208;DHT22;10263;48.716;8.760;2024-01-16T09:00:00;-3.10;99.90
20208;DHT22;10263;48.716;8.760;2024-01-16T09:02:28;-2.80;99.90
20208;DHT22;10263;48.716;8.760;2024-01-16T09:07:24;-2.80;99.90
20208;DHT22;10263;48.716;8.760;2024-01-16T09:14:45;-2.50;99.90
20208;DHT22;10263;48.716;8.760;2024-01-16T09:17:13;-2.40;99.90
20208;DHT22;10263;48.716;8.760;2024-01-16T09:19:39;-2.20;99.90
20208;DHT22;10263;48.716;8.760;2024-01-16T09:24:33;-2.20;99.90
20208;DHT22;10263;48.716;8.760;2024-01-16T09:29:31;-2.00;99.90
20208;DHT22;10263;48.716;8.760;2024-01-16T09:31:58;-1.60;99.90
20208;DHT22;10263;48.716;8.760;2024-01-16T09:34:26;-1.80;99.90
20208;DHT22;10263;48.716;8.760;2024-01-16T09:39:24;-1.30;99.90
20208;DHT22;10263;48.716;8.760;2024-01-16T09:41:51;-1.00;99.90
20208;DHT22;10263;48.716;8.760;2024-01-16T09:44:18;-0.90;99.90
20208;DHT22;10263;48.716;8.760;2024-01-16T09:46:46;-0.90;99.90
20208;DHT22;10263;48.716;8.760;2024-01-16T09:49:16;-1.10;99.90
20208;DHT22;10263;48.716;8.760;2024-01-16T09:51:46;-0.50;99.90
20208;DHT22;10263;48.716;8.760;2024-01-16T09:54:12;-0.80;99.90
20208;DHT22;10263;48.716;8.760;2024-01-16T09:56:42;-0.30;99.90
20208;DHT22;10263;48.716;8.760;2024-01-16T09:59:09;-0.10;99.90
20208;DHT22;10263;48.716;8.760;2024-01-16T10:01:38;0.50;99.90
20208;DHT22;10263;48.716;8.760;2024-01-16T10:04:04;0.20;99.90
20208;DHT22;10263;48.716;8.760;2024-01-16T10:06:33;0.80;99.90
20208;DHT22;10263;48.716;8.760;2024-01-16T10:09:03;0.90;99.90
20208;DHT22;10263;48.716;8.760;2024-01-16T10:11:30;1.00;99.90
20208;DHT22;10263;48.716;8.760;2024-01-16T10:16:55;1.40;99.90
20208;DHT22;10263;48.716;8.760;2024-01-16T10:21:50;1.70;99.90
20208;DHT22;10263;48.716;8.760;2024-01-16T10:24:19;2.10;99.90
20208;DHT22;10263;48.716;8.760;2024-01-16T10:26:45;2.80;99.90
20208;DHT22;10263;48.716;8.760;2024-01-16T10:34:21;3.90;99.90
20208;DHT22;10263;48.716;8.760;2024-01-16T10:36:50;4.50;99.90
20208;DHT22;10263;48.716;8.760;2024-01-16T10:39:19;5.00;99.90
20208;DHT22;10263;48.716;8.760;2024-01-16T10:41:54;5.30;99.90
20208;DHT22;10263;48.716;8.760;2024-01-16T10:46:48;5.80;99.90
20208;DHT22;10263;48.716;8.760;2024-01-16T10:49:15;6.20;99.90
20208;DHT22;10263;48.716;8.760;2024-01-16T10:51:43;6.60;99.90
20208;DHT22;10263;48.716;8.760;2024-01-16T10:54:13;6.80;99.90
20208;DHT22;10263;48.716;8.760;2024-01-16T10:56:45;7.40;99.90
20208;DHT22;10263;48.716;8.760;2024-01-16T10:59:24;8.00;99.80
20208;DHT22;10263;48.716;8.760;2024-01-16T11:01:53;7.70;98.40
20208;DHT22;10263;48.716;8.760;2024-01-16T11:04:21;7.60;96.50
20208;DHT22;10263;48.716;8.760;2024-01-16T11:06:51;7.40;96.90
20208;DHT22;10263;48.716;8.760;2024-01-16T11:09:18;7.10;96.30
20208;DHT22;10263;48.716;8.760;2024-01-16T11:11:50;7.30;96.60
20208;DHT22;10263;48.716;8.760;2024-01-16T11:14:21;7.60;95.60
20208;DHT22;10263;48.716;8.760;2024-01-16T11:16:49;7.60;94.90
20208;DHT22;10263;48.716;8.760;2024-01-16T11:19:18;7.60;94.90
20208;DHT22;10263;48.716;8.760;2024-01-16T11:21:46;7.50;94.40
20208;DHT22;10263;48.716;8.760;2024-01-16T11:24:13;7.50;93.60
20208;DHT22;10263;48.716;8.760;2024-01-16T11:26:40;7.60;92.80
20208;DHT22;10263;48.716;8.760;2024-01-16T11:29:36;7.50;92.60
20208;DHT22;10263;48.716;8.760;2024-01-16T11:32:04;7.80;92.80
20208;DHT22;10263;48.716;8.760;2024-01-16T11:34:52;7.90;92.10
20208;DHT22;10263;48.716;8.760;2024-01-16T11:37:27;7.90;91.70
20208;DHT22;10263;48.716;8.760;2024-01-16T11:40:24;7.60;89.70
20208;DHT22;10263;48.716;8.760;2024-01-16T11:42:52;7.20;89.20
20208;DHT22;10263;48.716;8.760;2024-01-16T11:45:49;6.80;87.90
20208;DHT22;10263;48.716;8.760;2024-01-16T11:48:19;6.70;88.20
20208;DHT22;10263;48.716;8.760;2024-01-16T11:50:46;6.80;89.30
20208;DHT22;10263;48.716;8.760;2024-01-16T11:53:33;7.10;85.50
20208;DHT22;10263;48.716;8.760;2024-01-16T11:56:32;7.50;84.80
20208;DHT22;10263;48.716;8.760;2024-01-16T11:59:32;8.10;84.40
20208;DHT22;10263;48.716;8.760;2024-01-16T12:02:10;8.10;79.90
20208;DHT22;10263;48.716;8.760;2024-01-16T12:04:38;7.30;79.40
20208;DHT22;10263;48.716;8.760;2024-01-16T12:07:05;7.00;82.10
20208;DHT22;10263;48.716;8.760;2024-01-16T12:09:32;6.70;82.00
20208;DHT22;10263;48.716;8.760;2024-01-16T12:12:01;6.80;83.10
20208;DHT22;10263;48.716;8.760;2024-01-16T12:17:10;6.00;84.40
20208;DHT22;10263;48.716;8.760;2024-01-16T12:19:37;5.60;85.60
20208;DHT22;10263;48.716;8.760;2024-01-16T12:22:08;5.60;87.60
20208;DHT22;10263;48.716;8.760;2024-01-16T12:27:01;5.60;87.60
20208;DHT22;10263;48.716;8.760;2024-01-16T12:32:05;5.80;85.80
20208;DHT22;10263;48.716;8.760;2024-01-16T12:34:34;6.00;86.30
20208;DHT22;10263;48.716;8.760;2024-01-16T12:37:04;6.50;86.80
20208;DHT22;10263;48.716;8.760;2024-01-16T12:39:31;6.80;85.30
20208;DHT22;10263;48.716;8.760;2024-01-16T12:41:58;6.70;83.00
20208;DHT22;10263;48.716;8.760;2024-01-16T12:44:26;6.30;83.50
20208;DHT22;10263;48.716;8.760;2024-01-16T12:46:54;6.30;83.20
20208;DHT22;10263;48.716;8.760;2024-01-16T12:51:50;5.40;84.90
20208;DHT22;10263;48.716;8.760;2024-01-16T12:54:18;5.50;86.10
20208;DHT22;10263;48.716;8.760;2024-01-16T12:59:15;5.30;87.40
20208;DHT22;10263;48.716;8.760;2024-01-16T13:01:43;5.20;86.60
20208;DHT22;10263;48.716;8.760;2024-01-16T13:04:11;4.80;86.90
20208;DHT22;10263;48.716;8.760;2024-01-16T13:06:39;4.70;89.00
20208;DHT22;10263;48.716;8.760;2024-01-16T13:09:11;4.90;89.40
20208;DHT22;10263;48.716;8.760;2024-01-16T13:11:48;4.80;89.50
20208;DHT22;10263;48.716;8.760;2024-01-16T13:14:15;4.80;86.60
20208;DHT22;10263;48.716;8.760;2024-01-16T13:16:42;4.80;88.20
20208;DHT22;10263;48.716;8.760;2024-01-16T13:21:36;5.30;90.10
20208;DHT22;10263;48.716;8.760;2024-01-16T13:26:32;6.50;88.90
20208;DHT22;10263;48.716;8.760;2024-01-16T13:29:00;7.40;84.20
20208;DHT22;10263;48.716;8.760;2024-01-16T13:33:54;8.80;80.10
20208;DHT22;10263;48.716;8.760;2024-01-16T13:36:22;8.90;77.40
20208;DHT22;10263;48.716;8.760;2024-01-16T13:38:49;9.60;77.30
20208;DHT22;10263;48.716;8.760;2024-01-16T13:43:44;9.60;73.90
20208;DHT22;10263;48.716;8.760;2024-01-16T13:56:01;13.00;63.60
20208;DHT22;10263;48.716;8.760;2024-01-16T14:00:56;13.90;59.60
20208;DHT22;10263;48.716;8.760;2024-01-16T14:08:18;14.30;54.80
20208;DHT22;10263;48.716;8.760;2024-01-16T14:10:45;15.10;54.20
20208;DHT22;10263;48.716;8.760;2024-01-16T14:13:13;15.40;53.00
20208;DHT22;10263;48.716;8.760;2024-01-16T14:15:39;16.40;51.30
20208;DHT22;10263;48.716;8.760;2024-01-16T14:18:08;17.90;48.80
20208;DHT22;10263;48.716;8.760;2024-01-16T14:23:02;21.40;43.60
20208;DHT22;10263;48.716;8.760;2024-01-16T14:25:29;20.60;38.50
20208;DHT22;10263;48.716;8.760;2024-01-16T14:27:58;19.00;39.00
20208;DHT22;10263;48.716;8.760;2024-01-16T14:30:26;16.40;40.20
20208;DHT22;10263;48.716;8.760;2024-01-16T14:35:23;12.30;44.00
20208;DHT22;10263;48.716;8.760;2024-01-16T14:37:50;10.50;46.90
20208;DHT22;10263;48.716;8.760;2024-01-16T14:45:19;7.30;55.70
20208;DHT22;10263;48.716;8.760;2024-01-16T14:47:46;6.60;56.50
20208;DHT22;10263;48.716;8.760;2024-01-16T14:50:14;6.00;59.90
20208;DHT22;10263;48.716;8.760;2024-01-16T14:52:44;5.50;61.00
20208;DHT22;10263;48.716;8.760;2024-01-16T14:55:11;5.00;62.20
20208;DHT22;10263;48.716;8.760;2024-01-16T14:57:38;4.70;62.40
20208;DHT22;10263;48.716;8.760;2024-01-16T15:00:09;4.10;64.00
20208;DHT22;10263;48.716;8.760;2024-01-16T15:05:08;3.40;66.10
20208;DHT22;10263;48.716;8.760;2024-01-16T15:07:35;3.10;70.00
20208;DHT22;10263;48.716;8.760;2024-01-16T15:10:05;3.00;69.20
20208;DHT22;10263;48.716;8.760;2024-01-16T15:12:34;2.60;69.50
20208;DHT22;10263;48.716;8.760;2024-01-16T15:17:28;2.10;71.40
20208;DHT22;10263;48.716;8.760;2024-01-16T15:19:55;2.10;72.60
20208;DHT22;10263;48.716;8.760;2024-01-16T15:22:22;2.00;73.80
20208;DHT22;10263;48.716;8.760;2024-01-16T15:24:49;2.60;76.00
20208;DHT22;10263;48.716;8.760;2024-01-16T15:27:17;1.50;75.80
20208;DHT22;10263;48.716;8.760;2024-01-16T15:29:45;1.40;76.70
20208;DHT22;10263;48.716;8.760;2024-01-16T15:34:40;1.20;78.70
20208;DHT22;10263;48.716;8.760;2024-01-16T15:37:07;1.00;79.90
20208;DHT22;10263;48.716;8.760;2024-01-16T15:44:29;0.70;85.20
20208;DHT22;10263;48.716;8.760;2024-01-16T15:46:57;0.60;86.50
20208;DHT22;10263;48.716;8.760;2024-01-16T15:51:52;0.30;89.10
20208;DHT22;10263;48.716;8.760;2024-01-16T15:54:19;0.40;90.10
20208;DHT22;10263;48.716;8.760;2024-01-16T15:56:46;0.00;90.80
20208;DHT22;10263;48.716;8.760;2024-01-16T16:01:43;-0.10;91.70
20208;DHT22;10263;48.716;8.760;2024-01-16T16:06:38;-0.30;92.80
20208;DHT22;10263;48.716;8.760;2024-01-16T16:09:06;-0.30;92.70
20208;DHT22;10263;48.716;8.760;2024-01-16T16:11:34;-0.50;92.80
20208;DHT22;10263;48.716;8.760;2024-01-16T16:14:02;-0.50;93.80
20208;DHT22;10263;48.716;8.760;2024-01-16T16:16:30;-0.70;94.90
20208;DHT22;10263;48.716;8.760;2024-01-16T16:18:59;-0.90;96.00
20208;DHT22;10263;48.716;8.760;2024-01-16T16:21:26;-0.90;96.90
20208;DHT22;10263;48.716;8.760;2024-01-16T16:23:53;-0.90;97.20
20208;DHT22;10263;48.716;8.760;2024-01-16T16:26:29;-1.10;97.90
20208;DHT22;10263;48.716;8.760;2024-01-16T16:28:58;-1.20;98.30
20208;DHT22;10263;48.716;8.760;2024-01-16T16:33:52;-1.10;99.20
20208;DHT22;10263;48.716;8.760;2024-01-16T16:36:20;-1.30;99.90
20208;DHT22;10263;48.716;8.760;2024-01-16T16:38:47;-1.50;99.90
20208;DHT22;10263;48.716;8.760;2024-01-16T16:41:15;-1.60;99.90
20208;DHT22;10263;48.716;8.760;2024-01-16T16:43:43;-1.70;99.90
20208;DHT22;10263;48.716;8.760;2024-01-16T16:48:38;-1.60;99.90
20208;DHT22;10263;48.716;8.760;2024-01-16T16:51:07;-1.80;99.90
20208;DHT22;10263;48.716;8.760;2024-01-16T16:53:35;-1.90;99.90
20208;DHT22;10263;48.716;8.760;2024-01-16T16:56:02;-1.80;99.90
20208;DHT22;10263;48.716;8.760;2024-01-16T16:58:29;-2.00;99.90
20208;DHT22;10263;48.716;8.760;2024-01-16T17:05:51;-2.10;99.90
20208;DHT22;10263;48.716;8.760;2024-01-16T17:10:46;-2.10;99.90
20208;DHT22;10263;48.716;8.760;2024-01-16T17:13:13;-2.50;99.90
20208;DHT22;10263;48.716;8.760;2024-01-16T17:18:07;-2.70;99.90
20208;DHT22;10263;48.716;8.760;2024-01-16T17:20:35;-2.70;99.90
20208;DHT22;10263;48.716;8.760;2024-01-16T17:23:02;-3.10;99.90
20208;DHT22;10263;48.716;8.760;2024-01-16T17:25:29;-2.80;99.90
20208;DHT22;10263;48.716;8.760;2024-01-16T17:27:57;-2.90;99.90
20208;DHT22;10263;48.716;8.760;2024-01-16T17:35:18;-3.10;99.90
20208;DHT22;10263;48.716;8.760;2024-01-16T17:45:10;-3.60;99.90
20208;DHT22;10263;48.716;8.760;2024-01-16T17:47:37;-3.50;99.90
20208;DHT22;10263;48.716;8.760;2024-01-16T17:50:05;-3.60;99.90
20208;DHT22;10263;48.716;8.760;2024-01-16T17:52:34;-3.80;99.90
20208;DHT22;10263;48.716;8.760;2024-01-16T17:59:55;-4.00;99.90
20208;DHT22;10263;48.716;8.760;2024-01-16T18:02:23;-3.90;99.90
20208;DHT22;10263;48.716;8.760;2024-01-16T18:04:50;-3.70;99.90
20208;DHT22;10263;48.716;8.760;2024-01-16T18:07:17;-3.90;99.90
20208;DHT22;10263;48.716;8.760;2024-01-16T18:17:05;-4.00;99.90
20208;DHT22;10263;48.716;8.760;2024-01-16T18:19:36;-4.20;99.90
20208;DHT22;10263;48.716;8.760;2024-01-16T18:22:03;-4.20;99.90
20208;DHT22;10263;48.716;8.760;2024-01-16T18:26:59;-4.50;99.90
20208;DHT22;10263;48.716;8.760;2024-01-16T18:29:27;-4.40;99.90
20208;DHT22;10263;48.716;8.760;2024-01-16T18:34:26;-4.60;99.90
20208;DHT22;10263;48.716;8.760;2024-01-16T18:36:53;-4.70;99.90
20208;DHT22;10263;48.716;8.760;2024-01-16T18:39:20;-4.60;99.90
20208;DHT22;10263;48.716;8.760;2024-01-16T18:41:47;-4.60;99.90
20208;DHT22;10263;48.716;8.760;2024-01-16T18:46:42;-4.90;99.90
20208;DHT22;10263;48.716;8.760;2024-01-16T18:49:09;-4.60;99.90
20208;DHT22;10263;48.716;8.760;2024-01-16T18:54:07;-4.80;99.90
20208;DHT22;10263;48.716;8.760;2024-01-16T18:56:33;-5.10;99.90
20208;DHT22;10263;48.716;8.760;2024-01-16T19:01:27;-5.20;99.90
20208;DHT22;10263;48.716;8.760;2024-01-16T19:03:54;-5.30;99.90
20208;DHT22;10263;48.716;8.760;2024-01-16T19:08:49;-5.30;99.90
20208;DHT22;10263;48.716;8.760;2024-01-16T19:11:17;-5.20;99.90
20208;DHT22;10263;48.716;8.760;2024-01-16T19:16:13;-5.60;99.90
20208;DHT22;10263;48.716;8.760;2024-01-16T19:18:40;-5.60;99.90
20208;DHT22;10263;48.716;8.760;2024-01-16T19:21:08;-5.60;99.90
20208;DHT22;10263;48.716;8.760;2024-01-16T19:23:36;-5.70;99.90
20208;DHT22;10263;48.716;8.760;2024-01-16T19:26:03;-5.60;99.90
20208;DHT22;10263;48.716;8.760;2024-01-16T19:28:31;-5.40;99.90
20208;DHT22;10263;48.716;8.760;2024-01-16T19:30:58;-5.40;99.90
20208;DHT22;10263;48.716;8.760;2024-01-16T19:33:26;-5.60;99.90
20208;DHT22;10263;48.716;8.760;2024-01-16T19:35:54;-5.60;99.90
20208;DHT22;10263;48.716;8.760;2024-01-16T19:40:51;-5.90;99.90
20208;DHT22;10263;48.716;8.760;2024-01-16T19:43:17;-5.80;99.90
20208;DHT22;10263;48.716;8.760;2024-01-16T19:45:46;-5.80;99.90
20208;DHT22;10263;48.716;8.760;2024-01-16T19:48:15;-5.70;99.90
20208;DHT22;10263;48.716;8.760;2024-01-16T19:50:43;-5.80;99.90
20208;DHT22;10263;48.716;8.760;2024-01-16T20:03:03;-6.10;99.90
20208;DHT22;10263;48.716;8.760;2024-01-16T20:05:32;-6.30;99.90
20208;DHT22;10263;48.716;8.760;2024-01-16T20:08:03;-6.20;99.90
20208;DHT22;10263;48.716;8.760;2024-01-16T20:10:30;-6.10;99.90
20208;DHT22;10263;48.716;8.760;2024-01-16T20:12:57;-6.10;99.90
20208;DHT22;10263;48.716;8.760;2024-01-16T20:15:29;-6.30;99.90
20208;DHT22;10263;48.716;8.760;2024-01-16T20:17:59;-6.40;99.90
20208;DHT22;10263;48.716;8.760;2024-01-16T20:20:28;-6.40;99.90
20208;DHT22;10263;48.716;8.760;2024-01-16T20:22:55;-6.60;99.90
20208;DHT22;10263;48.716;8.760;2024-01-16T20:25:22;-6.40;99.90
20208;DHT22;10263;48.716;8.760;2024-01-16T20:27:50;-6.60;99.90
20208;DHT22;10263;48.716;8.760;2024-01-16T20:30:17;-6.50;99.90
20208;DHT22;10263;48.716;8.760;2024-01-16T20:32:45;-6.50;99.90
20208;DHT22;10263;48.716;8.760;2024-01-16T20:35:13;-6.40;99.90
20208;DHT22;10263;48.716;8.760;2024-01-16T20:37:41;-6.40;99.90
20208;DHT22;10263;48.716;8.760;2024-01-16T20:40:09;-6.60;99.90
20208;DHT22;10263;48.716;8.760;2024-01-16T20:42:37;-6.80;99.90
20208;DHT22;10263;48.716;8.760;2024-01-16T20:45:05;-6.60;99.90
20208;DHT22;10263;48.716;8.760;2024-01-16T20:47:32;-6.70;99.90
20208;DHT22;10263;48.716;8.760;2024-01-16T20:52:25;-6.80;99.90
20208;DHT22;10263;48.716;8.760;2024-01-16T20:54:53;-6.90;99.90
20208;DHT22;10263;48.716;8.760;2024-01-16T20:57:20;-6.80;99.90
20208;DHT22;10263;48.716;8.760;2024-01-16T21:04:42;-6.90;99.90
20208;DHT22;10263;48.716;8.760;2024-01-16T21:07:10;-6.90;99.90
20208;DHT22;10263;48.716;8.760;2024-01-16T21:09:37;-7.00;99.90
20208;DHT22;10263;48.716;8.760;2024-01-16T21:12:07;-6.80;99.90
20208;DHT22;10263;48.716;8.760;2024-01-16T21:19:32;-6.80;99.90
20208;DHT22;10263;48.716;8.760;2024-01-16T21:22:01;-6.40;99.90
20208;DHT22;10263;48.716;8.760;2024-01-16T21:29:23;-7.10;99.90
20208;DHT22;10263;48.716;8.760;2024-01-16T21:31:50;-7.10;99.90
20208;DHT22;10263;48.716;8.760;2024-01-16T21:34:18;-6.90;99.90
20208;DHT22;10263;48.716;8.760;2024-01-16T21:46:40;-7.00;99.90
20208;DHT22;10263;48.716;8.760;2024-01-16T21:49:07;-6.90;99.90
20208;DHT22;10263;48.716;8.760;2024-01-16T21:56:30;-7.00;99.90
20208;DHT22;10263;48.716;8.760;2024-01-16T22:03:55;-7.10;99.90
20208;DHT22;10263;48.716;8.760;2024-01-16T22:06:22;-7.10;99.90